SBVTSBMK

Guest
Details From SBVT - Goiabeiras
To SBMK - MARIO RIBEIRO
Flight Number -
Tags generated
Created
Modified
Stats Distance 389 nm / 720 km
Max Altitude 24,500 ft / 7,468 m
Waypoints 7
Social Downloads 2
Likes 0
Share VATSIM

Download

Looking for another format? Having issues loading an existing format? Contact us
Advertisement - Login to hide

Notes

Basic altitude profile: - Ascent Rate: 1500ft/min - Ascent Speed: 120kts - Cruise Altitude: 10000ft - Cruise Speed: 180kts - Descent Rate: 700ft/min - Descent Speed: 140kts Options: - Use NATs: no - Use PACOTS: no - Use low airways: yes - Use high airways: no

Route

SBVT GAVOK W11 CNF W8 MCL SBMK

ID Type Via Altitude Latitude Longitude Leg Dist Tot Dist Heading (true) Name
O SBVT APT - 0 ft / 0 m -20.25561˚ -40.28889˚ - 0 nm - Goiabeiras
GAVOK FIX - 14,100 ft / 4,298 m -20.12817˚ -40.98000˚ 39 nm 39 nm 281° / 281° -
DRAMA FIX W11 (AWY-LO) 24,500 ft / 7,468 m -19.71067˚ -43.26383˚ 131 nm 171 nm 281° / 281° -
CNF VOR W11 (AWY-LO) 24,500 ft / 7,468 m -19.55817˚ -44.04850˚ 45 nm 216 nm 282° / 282° CONFINS VOR-DME
ELBAM FIX W8 (AWY-LO) 23,500 ft / 7,163 m -18.96517˚ -44.00067˚ 35 nm 252 nm 4° / 4° -
MCL NDB W8 (AWY-LO) 8,500 ft / 2,591 m -16.70350˚ -43.81917˚ 136 nm 388 nm 4° / 4° MONTES CLAROS NDB
O SBMK APT - 0 ft / 0 m -16.70692˚ -43.81890˚ 0 nm 388 nm 176° / 176° MARIO RIBEIRO

Altitude Profile

Advertisement - Login to hide

Weather


0- 5 10 15 20 25 30 35+ Temperature / ° C

Clouds and Precipitation
Forecast for 2018-05-25 12:00 UTC. Updated 6 hours ago

Ground ~20,000 ft ~40,000 ft Winds

SBVT

Details ICAO SBVT (VIX)
Name Goiabeiras
Region Brazil
Timezone America/Sao_Paulo (UTC-3.0)
Stats Elevation 11 ft / 3 m (AMSL)
Location -20.255611° -40.288893°
Runways 1
Magnetic Variation 23.829° W

METAR

SBVT 251700Z 22011KT 8000 -RA SCT007 BKN013 OVC070 21/20 Q1021

Decode

TAF

TAF SBVT 251000Z 2512/2612 32005KT 8000 SCT020 SCT030 TX27/2516Z TN18/2606Z PROB40 TEMPO 2512/2515 6000 BKN012 BECMG 2513/2515 17009KT TEMPO 2516/2520 4000 RA SCT006 BKN015 BECMG 2523/2601 32004KT TEMPO 2602/2605 4500 RA BR SCT006 BKN015 RMK PEA

Decode

Departure Runways

ID Width Length Bearing (true) Bearing (mag) Surface Threshold Offset Overrun Length
05 148 ft / 45 m 5,769 ft / 1,759 m 31.71° 55.54° Asphalt 0 ft / 0 m 189 ft / 58 m
23 148 ft / 45 m 5,769 ft / 1,759 m 211.71° 235.54° Asphalt 0 ft / 0 m 189 ft / 58 m

SBMK

Details ICAO SBMK (MOC)
Name MARIO RIBEIRO
Region Brazil
Timezone America/Sao_Paulo (UTC-3.0)
Stats Elevation 2,191 ft / 668 m (AMSL)
Location -16.706925° -43.818900°
Runways 1
Magnetic Variation 22.932° W

METAR

SBMK 251600Z 12005KT 9999 FEW040 26/12 Q1021

Decode

TAF

Not found

Destination Runways

ID Width Length Bearing (true) Bearing (mag) Surface Threshold Offset Overrun Length
12 148 ft / 45 m 6,883 ft / 2,098 m 96.90° 119.83° Asphalt 0 ft / 0 m 0 ft / 0 m
30 148 ft / 45 m 6,883 ft / 2,098 m 276.90° 299.83° Asphalt 0 ft / 0 m 0 ft / 0 m